Time;durP1;ratioP1;P1;durP2;ratioP2;P2;SDS_P1;SDS_P2;PMS_P1;PMS_P2;Temp;Humidity;BMP_temperature;BMP_pressure;BME280_temperature;BME280_humidity;BME280_pressure;Samples;Min_cycle;Max_cycle;Signal;HPM_P1;HPM_P2
2022/11/02 00:01:14;;;;;;;7.90;1.55;;;13.20;96.90;;;;;;6275626;22;20050;-86
2022/11/02 00:03:39;;;;;;;8.15;1.50;;;13.10;96.90;;;;;;6248505;22;20018;-86
2022/11/02 00:06:05;;;;;;;7.88;1.40;;;13.20;97.10;;;;;;6276339;22;20047;-87
2022/11/02 00:08:30;;;;;;;10.65;1.60;;;13.10;97.20;;;;;;6249159;22;20020;-85
2022/11/02 00:10:56;;;;;;;11.18;1.80;;;13.10;97.30;;;;;;6275661;22;20016;-86
2022/11/02 00:13:22;;;;;;;7.93;1.45;;;13.10;97.40;;;;;;6277154;22;20347;-86
2022/11/02 00:15:47;;;;;;;10.02;1.42;;;13.10;97.40;;;;;;6248643;22;20069;-85
2022/11/02 00:18:14;;;;;;;7.82;1.50;;;13.10;97.50;;;;;;6248319;22;20020;-85
2022/11/02 00:20:41;;;;;;;6.43;1.20;;;13.10;97.60;;;;;;6275960;22;20016;-85
2022/11/02 00:23:11;;;;;;;10.75;1.75;;;13.10;97.60;;;;;;6249186;22;20012;-87
2022/11/02 00:25:49;;;;;;;10.90;1.73;;;13.10;97.70;;;;;;6248974;22;20344;-85
2022/11/02 00:28:17;;;;;;;7.80;0.95;;;13.10;97.80;;;;;;6251432;22;20022;-87
2022/11/02 00:30:43;;;;;;;6.88;1.20;;;13.10;97.90;;;;;;6278241;22;20015;-85
2022/11/02 00:33:12;;;;;;;8.27;1.50;;;13.00;97.80;;;;;;6251030;22;20020;-86
2022/11/02 00:35:41;;;;;;;5.15;0.98;;;13.00;98.10;;;;;;6252042;22;20016;-86
2022/11/02 00:38:09;;;;;;;8.00;1.20;;;12.90;98.00;;;;;;6250003;22;20034;-85
2022/11/02 00:40:34;;;;;;;5.47;1.00;;;12.80;98.00;;;;;;6251355;22;20104;-87
2022/11/02 00:43:03;;;;;;;7.72;1.27;;;12.80;97.90;;;;;;6250950;22;20015;-86
2022/11/02 00:45:31;;;;;;;3.45;0.60;;;12.70;98.30;;;;;;6250019;22;20016;-87
2022/11/02 00:47:57;;;;;;;4.82;0.85;;;12.70;98.10;;;;;;6250872;22;20012;-86
2022/11/02 00:50:32;;;;;;;3.63;0.60;;;12.60;98.10;;;;;;6251203;22;20444;-87
2022/11/02 00:53:00;;;;;;;3.97;0.85;;;12.60;98.20;;;;;;6277215;22;20371;-86
2022/11/02 00:55:32;;;;;;;5.07;0.80;;;12.60;98.30;;;;;;6250637;22;20028;-85
2022/11/02 00:58:00;;;;;;;4.93;0.77;;;12.50;98.30;;;;;;6277758;22;20016;-86
2022/11/02 01:00:26;;;;;;;5.60;0.90;;;12.50;98.50;;;;;;6249738;22;20501;-87
2022/11/02 01:02:52;;;;;;;3.45;0.68;;;12.50;98.60;;;;;;6250369;22;20020;-87
2022/11/02 01:05:17;;;;;;;3.78;0.70;;;12.40;98.70;;;;;;6250392;22;20020;-86
2022/11/02 01:07:43;;;;;;;2.45;0.55;;;12.40;98.70;;;;;;6276549;22;20066;-87
2022/11/02 01:10:10;;;;;;;3.97;0.70;;;12.40;98.80;;;;;;6250349;22;20086;-86
2022/11/02 01:12:37;;;;;;;4.90;0.90;;;12.40;98.90;;;;;;6277748;22;20444;-86
2022/11/02 01:15:04;;;;;;;3.85;0.60;;;12.30;98.90;;;;;;6249245;22;20024;-87
2022/11/02 01:17:30;;;;;;;1.95;0.63;;;12.30;99.00;;;;;;6251317;22;20019;-86
2022/11/02 01:19:58;;;;;;;3.95;0.82;;;12.40;99.00;;;;;;6249191;22;20016;-86
2022/11/02 01:22:24;;;;;;;5.25;0.80;;;12.40;99.00;;;;;;6251009;22;20016;-86
2022/11/02 01:24:49;;;;;;;4.00;0.82;;;12.30;99.00;;;;;;6250517;22;20098;-86
2022/11/02 01:27:15;;;;;;;3.78;0.80;;;12.40;99.10;;;;;;6249570;22;20020;-87
2022/11/02 01:29:40;;;;;;;3.67;1.00;;;12.40;99.10;;;;;;6250468;22;20103;-86
2022/11/02 01:32:06;;;;;;;3.22;0.70;;;12.30;99.10;;;;;;6249804;22;20015;-86
2022/11/02 01:34:32;;;;;;;3.20;0.70;;;12.40;99.20;;;;;;6249367;22;20065;-86
2022/11/02 01:37:06;;;;;;;3.83;0.90;;;12.30;99.20;;;;;;6276194;22;20012;-85
2022/11/02 01:39:41;;;;;;;4.70;0.60;;;12.30;99.20;;;;;;6250227;22;20020;-86
2022/11/02 01:42:22;;;;;;;2.83;0.55;;;12.30;99.20;;;;;;6276190;22;20051;-86
2022/11/02 01:44:47;;;;;;;3.50;0.80;;;12.30;99.20;;;;;;6249785;22;20070;-86
2022/11/02 01:47:37;;;;;;;2.92;0.65;;;12.20;99.20;;;;;;6249800;22;20025;-86
2022/11/02 01:50:15;;;;;;;2.35;0.55;;;12.20;99.30;;;;;;6248860;22;20019;-85
2022/11/02 01:52:41;;;;;;;4.85;0.75;;;12.20;99.30;;;;;;6250068;22;20066;-86
2022/11/02 01:55:07;;;;;;;5.57;1.20;;;12.30;99.40;;;;;;6250326;22;20432;-86
2022/11/02 01:57:38;;;;;;;4.82;0.98;;;12.20;99.40;;;;;;6276914;22;20039;-85
2022/11/02 02:00:10;;;;;;;6.32;1.35;;;12.20;99.70;;;;;;6250701;22;20078;-85
2022/11/02 02:03:08;;;;;;;4.65;1.05;;;12.20;99.80;;;;;;6249287;22;20024;-86
2022/11/02 02:05:40;;;;;;;6.43;1.17;;;12.20;99.80;;;;;;6250353;22;20020;-85
2022/11/02 02:08:08;;;;;;;9.77;1.52;;;12.20;99.90;;;;;;6249518;22;20019;-85
2022/11/02 02:10:35;;;;;;;7.70;1.85;;;12.30;99.90;;;;;;6276726;22;20098;-86
2022/11/02 02:13:02;;;;;;;9.10;2.03;;;12.30;99.90;;;;;;6249325;22;20016;-85
2022/11/02 02:15:57;;;;;;;10.88;2.00;;;12.30;99.90;;;;;;6276281;22;20016;-86
2022/11/02 02:18:47;;;;;;;11.23;2.38;;;12.30;99.90;;;;;;6249067;22;20055;-85
2022/11/02 02:21:42;;;;;;;11.50;2.03;;;12.30;99.90;;;;;;6250321;22;20030;-86
2022/11/02 02:24:53;;;;;;;7.85;1.73;;;12.30;99.90;;;;;;6248855;22;20026;-85
2022/11/02 02:27:52;;;;;;;15.00;1.90;;;12.30;99.90;;;;;;6158903;23;20029;-85
2022/11/02 02:30:22;;;;;;;10.52;1.60;;;12.30;99.90;;;;;;6196290;22;20020;-85
2022/11/02 02:33:04;;;;;;;9.23;1.92;;;12.30;99.90;;;;;;6276592;22;20012;-86
2022/11/02 02:35:52;;;;;;;9.23;1.50;;;12.30;99.80;;;;;;6277078;22;20016;-86
2022/11/02 02:38:29;;;;;;;6.25;1.48;;;12.30;99.70;;;;;;6249454;22;20023;-85
2022/11/02 02:41:23;;;;;;;8.55;1.70;;;12.40;99.90;;;;;;6276980;22;20085;-86
2022/11/02 02:43:52;;;;;;;8.88;1.55;;;12.30;99.50;;;;;;6277343;22;20015;-86
2022/11/02 02:46:24;;;;;;;7.38;1.38;;;12.30;99.40;;;;;;6223420;22;20078;-85
2022/11/02 02:48:54;;;;;;;8.10;1.27;;;12.30;99.40;;;;;;6248949;22;20352;-87
2022/11/02 02:51:26;;;;;;;6.55;1.05;;;12.30;99.10;;;;;;6249658;22;20025;-85
2022/11/02 02:54:09;;;;;;;6.50;1.08;;;12.30;98.80;;;;;;6276770;22;20016;-86
2022/11/02 02:56:49;;;;;;;5.60;1.23;;;12.30;98.50;;;;;;6277453;22;20023;-86
2022/11/02 02:59:31;;;;;;;5.25;1.00;;;12.30;98.50;;;;;;6249103;22;20055;-86
2022/11/02 03:01:57;;;;;;;5.20;1.17;;;12.20;98.40;;;;;;6276938;22;20018;-87
2022/11/02 03:04:24;;;;;;;5.72;1.00;;;12.20;98.40;;;;;;6249531;22;20066;-87
2022/11/02 03:06:53;;;;;;;5.15;0.98;;;12.30;98.30;;;;;;6276728;22;20023;-86
2022/11/02 03:09:38;;;;;;;4.95;0.90;;;12.30;98.20;;;;;;6277314;22;20012;-86
2022/11/02 03:12:50;;;;;;;5.93;0.73;;;12.20;98.20;;;;;;6249720;22;20019;-86
2022/11/02 03:15:23;;;;;;;5.43;0.88;;;12.20;98.10;;;;;;6276667;22;20051;-85
2022/11/02 03:18:04;;;;;;;5.00;0.80;;;12.10;98.30;;;;;;6249588;22;20016;-86
2022/11/02 03:20:48;;;;;;;6.18;1.10;;;12.10;98.20;;;;;;6275915;22;20020;-85
2022/11/02 03:23:42;;;;;;;4.03;0.90;;;12.00;98.20;;;;;;6249680;22;20559;-86
2022/11/02 03:26:21;;;;;;;7.68;1.30;;;12.00;98.40;;;;;;6276469;22;20481;-86
2022/11/02 03:29:10;;;;;;;5.70;1.05;;;12.00;98.50;;;;;;6275332;22;20019;-85
2022/11/02 03:32:12;;;;;;;4.63;0.82;;;12.00;98.40;;;;;;6249460;22;20020;-87
2022/11/02 03:34:50;;;;;;;7.38;1.20;;;11.90;98.60;;;;;;6248544;22;20015;-87
2022/11/02 03:37:51;;;;;;;6.53;1.00;;;11.90;98.60;;;;;;6249821;22;20024;-85
2022/11/02 03:40:38;;;;;;;9.65;1.40;;;11.90;98.50;;;;;;6276661;22;20024;-85
2022/11/02 03:43:07;;;;;;;10.63;1.52;;;11.90;98.60;;;;;;6249225;22;20011;-85
2022/11/02 03:45:40;;;;;;;6.97;1.30;;;11.90;98.60;;;;;;6249487;22;20019;-85
2022/11/02 03:48:20;;;;;;;8.85;1.45;;;11.80;98.40;;;;;;6247882;22;20015;-85
2022/11/02 03:50:49;;;;;;;9.25;1.70;;;11.80;98.40;;;;;;6275853;22;20375;-85
2022/11/02 03:53:42;;;;;;;7.55;0.90;;;11.80;98.50;;;;;;6248825;22;20012;-86
2022/11/02 03:56:14;;;;;;;7.88;1.20;;;11.80;98.50;;;;;;6247843;22;20016;-86
2022/11/02 03:58:40;;;;;;;7.32;1.38;;;11.80;98.50;;;;;;6276168;22;20043;-85
2022/11/02 04:01:09;;;;;;;10.27;1.38;;;11.80;98.40;;;;;;6276987;22;20012;-85
2022/11/02 04:03:40;;;;;;;8.52;1.40;;;11.70;98.40;;;;;;6249609;22;20340;-85
2022/11/02 04:06:06;;;;;;;6.82;1.20;;;11.70;98.40;;;;;;6250513;22;20022;-85
2022/11/02 04:08:36;;;;;;;7.95;1.42;;;11.70;98.30;;;;;;6251235;22;20030;-85
2022/11/02 04:20:01;;;;;;;8.40;1.33;;;11.70;98.30;;;;;;6278248;22;20019;-86
2022/11/02 04:25:32;;;;;;;6.68;1.33;;;11.70;98.40;;;;;;6250931;22;20098;-86
2022/11/02 04:28:08;;;;;;;9.90;1.48;;;11.70;98.40;;;;;;6250609;22;20037;-85
2022/11/02 04:30:33;;;;;;;9.70;1.30;;;11.70;98.30;;;;;;6250011;22;20440;-85
2022/11/02 04:36:06;;;;;;;7.10;1.13;;;11.70;98.50;;;;;;6250296;22;20019;-84
2022/11/02 04:38:41;;;;;;;6.18;1.20;;;11.70;98.50;;;;;;6249435;22;20019;-85
2022/11/02 04:41:40;;;;;;;10.68;1.27;;;11.70;98.50;;;;;;6250004;22;20038;-86
2022/11/02 04:44:06;;;;;;;5.47;1.10;;;11.70;98.60;;;;;;6265283;22;20098;-85
2022/11/02 04:46:34;;;;;;;9.23;1.42;;;11.70;98.50;;;;;;6277674;22;20094;-85
2022/11/02 04:49:00;;;;;;;8.52;1.77;;;11.70;98.60;;;;;;6277641;22;20379;-84
2022/11/02 04:51:27;;;;;;;9.15;1.42;;;11.60;98.60;;;;;;6277727;22;20016;-85
2022/11/02 04:53:59;;;;;;;9.05;1.60;;;11.70;98.80;;;;;;6275443;22;20016;-86
2022/11/02 04:56:41;;;;;;;10.85;1.88;;;11.60;98.80;;;;;;6276633;22;20015;-85
2022/11/02 04:59:06;;;;;;;10.00;1.50;;;11.60;98.80;;;;;;6249753;22;20065;-85
2022/11/02 05:01:35;;;;;;;10.15;1.63;;;11.60;99.00;;;;;;6278128;22;20016;-85
2022/11/02 05:04:09;;;;;;;9.35;1.70;;;11.60;99.10;;;;;;6278369;22;20012;-87
2022/11/02 05:06:35;;;;;;;10.43;1.83;;;11.60;99.20;;;;;;6250095;22;20015;-87
2022/11/02 05:09:01;;;;;;;14.77;2.25;;;11.60;99.30;;;;;;6250603;22;20344;-86
2022/11/02 05:11:29;;;;;;;10.15;1.83;;;11.60;99.30;;;;;;6250898;22;20043;-88
2022/11/02 05:13:55;;;;;;;9.85;1.67;;;11.60;99.40;;;;;;6248936;22;20026;-86
2022/11/02 05:16:23;;;;;;;12.77;1.77;;;11.60;99.50;;;;;;6276848;22;20337;-85
2022/11/02 05:18:58;;;;;;;8.75;1.80;;;11.60;99.50;;;;;;6250795;22;20023;-85
2022/11/02 05:25:29;;;;;;;11.95;1.80;;;11.60;99.50;;;;;;6077435;23;20088;-88
2022/11/02 05:27:56;;;;;;;12.43;2.22;;;11.50;99.70;;;;;;6155549;22;20027;-88
2022/11/02 05:30:21;;;;;;;12.05;1.77;;;11.60;99.80;;;;;;6251719;22;20018;-86
2022/11/02 05:32:47;;;;;;;11.52;1.90;;;11.60;99.80;;;;;;6249904;22;20400;-86
2022/11/02 05:35:16;;;;;;;9.93;1.70;;;11.50;99.80;;;;;;6250081;22;20023;-89
2022/11/02 05:37:54;;;;;;;15.48;1.90;;;11.50;99.90;;;;;;6278036;22;20094;-84
2022/11/02 05:40:22;;;;;;;11.73;2.15;;;11.60;99.90;;;;;;6250288;22;20019;-88
2022/11/02 05:43:00;;;;;;;12.77;2.03;;;11.60;99.90;;;;;;6251832;22;20015;-86
2022/11/02 05:45:26;;;;;;;9.60;1.98;;;11.60;99.90;;;;;;6250393;22;20012;-86
2022/11/02 05:47:52;;;;;;;13.57;2.05;;;11.50;99.90;;;;;;6277099;22;20086;-86
2022/11/02 05:50:18;;;;;;;11.02;1.80;;;11.50;99.90;;;;;;6250587;22;20440;-85
2022/11/02 05:52:43;;;;;;;12.73;2.20;;;11.50;99.90;;;;;;6250496;22;20023;-86
2022/11/02 05:55:09;;;;;;;13.43;1.98;;;11.50;99.90;;;;;;6277290;22;20047;-86
2022/11/02 05:57:35;;;;;;;11.75;2.10;;;11.50;99.90;;;;;;6250564;22;20016;-86
2022/11/02 06:00:01;;;;;;;9.88;1.70;;;11.50;99.90;;;;;;6250012;22;20313;-84
2022/11/02 06:02:26;;;;;;;10.57;1.60;;;11.50;99.90;;;;;;6249981;22;20070;-86
2022/11/02 06:04:52;;;;;;;10.65;1.75;;;11.50;99.90;;;;;;6277068;22;20387;-85
2022/11/02 06:07:18;;;;;;;8.60;1.75;;;11.50;99.90;;;;;;6250271;22;20030;-86
2022/11/02 06:09:43;;;;;;;10.90;1.70;;;11.50;99.90;;;;;;6249671;22;20018;-86
2022/11/02 06:12:09;;;;;;;13.35;1.75;;;11.50;99.90;;;;;;6250151;22;20015;-85
2022/11/02 06:14:34;;;;;;;8.75;1.63;;;11.40;99.90;;;;;;6250918;22;20075;-86
2022/11/02 06:17:00;;;;;;;9.82;1.80;;;11.50;99.90;;;;;;6249619;22;20039;-85
2022/11/02 06:19:26;;;;;;;10.75;2.20;;;11.50;99.90;;;;;;6277686;22;20015;-85
2022/11/02 06:21:51;;;;;;;7.47;1.80;;;11.50;99.90;;;;;;6277524;22;20043;-85
2022/11/02 06:24:17;;;;;;;10.05;1.92;;;11.50;99.90;;;;;;6248622;22;20019;-86
2022/11/02 06:26:42;;;;;;;12.90;2.05;;;11.50;99.90;;;;;;6277483;22;20086;-86
2022/11/02 06:29:08;;;;;;;12.75;1.88;;;11.40;99.90;;;;;;6277096;22;20436;-85
2022/11/02 06:31:34;;;;;;;12.82;2.08;;;11.50;99.90;;;;;;6276010;22;20318;-86
2022/11/02 06:33:59;;;;;;;10.65;2.00;;;11.50;99.90;;;;;;6249528;22;20020;-85
2022/11/02 06:36:25;;;;;;;20.65;2.40;;;11.40;99.90;;;;;;6276710;22;20016;-85
2022/11/02 06:38:50;;;;;;;16.60;2.72;;;11.40;99.90;;;;;;6249544;22;20016;-86
2022/11/02 06:41:16;;;;;;;10.55;2.17;;;11.40;99.90;;;;;;6250019;22;20396;-86
2022/11/02 06:43:43;;;;;;;14.32;3.38;;;11.40;99.90;;;;;;6249493;22;20078;-86
2022/11/02 06:46:08;;;;;;;18.92;5.13;;;11.50;99.90;;;;;;6249890;22;20070;-86
2022/11/02 06:48:34;;;;;;;17.70;5.22;;;11.50;99.90;;;;;;6249274;22;20020;-86
2022/11/02 06:51:00;;;;;;;17.23;2.70;;;11.50;99.90;;;;;;6275428;22;20012;-85
2022/11/02 06:53:26;;;;;;;14.40;2.60;;;11.40;99.90;;;;;;6276332;22;20087;-86
2022/11/02 06:55:56;;;;;;;13.88;2.50;;;11.40;99.90;;;;;;6249264;22;20054;-85
2022/11/02 06:58:24;;;;;;;10.13;2.38;;;11.40;99.90;;;;;;6248706;22;20026;-85
2022/11/02 07:00:59;;;;;;;14.88;2.80;;;11.50;99.90;;;;;;6276442;22;20039;-85
2022/11/02 07:03:25;;;;;;;12.80;2.33;;;11.50;99.90;;;;;;6249663;22;20023;-85
2022/11/02 07:05:52;;;;;;;13.75;2.50;;;11.40;99.90;;;;;;6247945;22;20341;-85
2022/11/02 07:08:19;;;;;;;12.30;2.30;;;11.50;99.90;;;;;;6249852;22;20016;-85
2022/11/02 07:10:44;;;;;;;12.15;2.30;;;11.50;99.90;;;;;;6249128;22;20091;-85
2022/11/02 07:13:10;;;;;;;14.40;2.53;;;11.50;99.90;;;;;;6248641;22;20417;-85
2022/11/02 07:15:37;;;;;;;12.57;2.45;;;11.50;99.90;;;;;;6276854;22;20011;-84
2022/11/02 07:18:04;;;;;;;11.73;1.90;;;11.50;99.90;;;;;;6276680;22;20030;-85
2022/11/02 07:20:31;;;;;;;11.55;1.92;;;11.50;99.90;;;;;;6277254;22;20011;-86
2022/11/02 07:22:59;;;;;;;14.10;2.30;;;11.50;99.90;;;;;;6276772;22;20020;-86
2022/11/02 07:25:26;;;;;;;11.50;2.30;;;11.50;99.90;;;;;;6249660;22;20026;-86
2022/11/02 07:27:52;;;;;;;13.27;2.30;;;11.50;99.90;;;;;;6248522;22;20043;-87
2022/11/02 07:30:18;;;;;;;10.98;1.95;;;11.50;99.90;;;;;;6250225;22;20436;-87
2022/11/02 07:32:45;;;;;;;12.15;1.95;;;11.50;99.90;;;;;;6248845;22;20012;-87
2022/11/02 07:35:12;;;;;;;14.90;2.22;;;11.50;99.90;;;;;;6251629;22;20016;-85
2022/11/02 07:37:38;;;;;;;8.82;1.80;;;11.50;99.90;;;;;;6251242;22;20091;-86
2022/11/02 07:40:06;;;;;;;10.57;2.17;;;11.50;99.90;;;;;;6250488;22;20043;-86
2022/11/02 07:42:32;;;;;;;13.15;2.70;;;11.50;99.90;;;;;;6251832;22;20019;-86
2022/11/02 07:44:57;;;;;;;15.13;2.22;;;11.50;99.90;;;;;;6278292;22;20039;-84
2022/11/02 07:47:23;;;;;;;11.93;2.05;;;11.50;99.90;;;;;;6278582;22;20038;-83
2022/11/02 07:49:49;;;;;;;18.05;2.63;;;11.50;99.90;;;;;;6278494;22;20015;-83
2022/11/02 07:52:14;;;;;;;11.88;1.83;;;11.50;99.90;;;;;;6278295;22;20440;-84
2022/11/02 07:54:40;;;;;;;11.35;2.15;;;11.50;99.90;;;;;;6250832;22;20023;-84
2022/11/02 07:57:05;;;;;;;10.60;1.95;;;11.50;99.90;;;;;;6251006;22;20011;-84
2022/11/02 07:59:31;;;;;;;11.05;2.08;;;11.50;99.90;;;;;;6251276;22;20027;-84
2022/11/02 08:01:56;;;;;;;12.00;2.00;;;11.50;99.90;;;;;;6250167;22;20012;-83
2022/11/02 08:04:22;;;;;;;12.70;2.03;;;11.50;99.90;;;;;;6251235;22;20511;-84
2022/11/02 08:06:48;;;;;;;11.00;2.03;;;11.50;99.90;;;;;;6250704;22;20082;-86
2022/11/02 08:09:14;;;;;;;10.35;1.63;;;11.50;99.90;;;;;;6250138;22;20101;-84
2022/11/02 08:11:40;;;;;;;11.93;1.83;;;11.50;99.90;;;;;;6278356;22;20058;-83
2022/11/02 08:14:06;;;;;;;12.68;1.80;;;11.50;99.90;;;;;;6250971;22;20023;-84
2022/11/02 08:16:32;;;;;;;9.43;1.60;;;11.50;99.90;;;;;;6249752;22;20050;-83
2022/11/02 08:18:58;;;;;;;12.15;1.73;;;11.50;99.90;;;;;;6251262;22;20019;-83
2022/11/02 08:21:24;;;;;;;13.30;1.90;;;11.50;99.90;;;;;;6277975;22;20007;-83
2022/11/02 08:23:50;;;;;;;8.65;1.48;;;11.60;99.90;;;;;;6275202;22;20019;-84
2022/11/02 08:26:16;;;;;;;7.47;1.35;;;11.60;99.90;;;;;;6250445;22;20016;-84
2022/11/02 08:28:41;;;;;;;7.20;1.42;;;11.60;99.90;;;;;;6251126;22;20012;-84
2022/11/02 08:31:14;;;;;;;10.63;1.55;;;11.70;99.90;;;;;;6250144;22;20067;-84
2022/11/02 08:33:43;;;;;;;10.15;1.52;;;11.60;99.80;;;;;;6250651;22;20047;-84
2022/11/02 08:36:10;;;;;;;9.10;1.33;;;11.70;99.70;;;;;;6277457;22;20008;-84
2022/11/02 08:38:36;;;;;;;8.30;1.48;;;11.70;99.70;;;;;;6250958;22;20012;-85
2022/11/02 08:41:02;;;;;;;9.23;1.38;;;11.70;99.60;;;;;;6277571;22;20328;-84
2022/11/02 08:43:27;;;;;;;7.22;1.60;;;11.70;99.60;;;;;;6249922;22;20039;-84
2022/11/02 08:45:56;;;;;;;10.52;1.42;;;11.70;99.50;;;;;;6250565;22;20503;-84
2022/11/02 08:48:22;;;;;;;10.32;1.30;;;11.70;99.50;;;;;;6250106;22;20102;-84
2022/11/02 08:50:48;;;;;;;8.73;1.50;;;11.80;99.80;;;;;;6249633;22;20016;-83
2022/11/02 08:53:14;;;;;;;10.13;1.52;;;11.80;99.40;;;;;;6250383;22;20016;-83
2022/11/02 08:55:39;;;;;;;9.65;1.23;;;11.90;99.40;;;;;;6250426;22;20102;-83
2022/11/02 08:58:05;;;;;;;8.90;1.40;;;11.80;99.40;;;;;;6248843;22;20023;-83
2022/11/02 09:00:32;;;;;;;6.93;1.48;;;11.80;99.30;;;;;;6251351;22;20012;-83
2022/11/02 09:03:10;;;;;;;8.30;1.48;;;11.90;99.30;;;;;;6277454;22;20427;-83
2022/11/02 09:05:39;;;;;;;10.35;1.45;;;11.90;99.20;;;;;;6277019;22;20011;-83
2022/11/02 09:08:07;;;;;;;16.30;1.58;;;12.00;99.20;;;;;;6250274;22;20050;-83
2022/11/02 09:10:35;;;;;;;10.68;1.52;;;12.00;99.10;;;;;;6250112;22;20019;-83
2022/11/02 09:13:03;;;;;;;16.25;2.00;;;12.10;99.10;;;;;;6249978;22;20406;-83
2022/11/02 09:15:29;;;;;;;10.02;1.63;;;12.10;99.00;;;;;;6277544;22;20027;-83
2022/11/02 09:17:55;;;;;;;15.95;2.05;;;12.20;98.80;;;;;;6277633;22;20019;-83
2022/11/02 09:20:21;;;;;;;13.23;2.47;;;12.20;98.70;;;;;;6249388;22;20471;-83
2022/11/02 09:22:47;;;;;;;8.07;1.60;;;12.30;98.50;;;;;;6250639;22;20023;-83
2022/11/02 09:25:14;;;;;;;13.18;1.63;;;12.30;98.30;;;;;;6250392;22;20020;-83
2022/11/02 09:27:40;;;;;;;8.85;1.70;;;12.40;98.20;;;;;;6277704;22;20022;-83
2022/11/02 09:30:06;;;;;;;10.93;1.70;;;12.40;98.10;;;;;;6277200;22;20545;-83
2022/11/02 09:32:32;;;;;;;12.23;1.70;;;12.40;98.00;;;;;;6249474;22;20016;-83
2022/11/02 09:35:04;;;;;;;9.88;1.52;;;12.50;97.70;;;;;;6250096;22;20023;-82
2022/11/02 09:37:31;;;;;;;12.07;2.42;;;12.50;97.40;;;;;;6249828;22;20016;-83
2022/11/02 09:39:57;;;;;;;14.70;1.67;;;12.50;97.30;;;;;;6248383;22;20034;-83
2022/11/02 09:42:33;;;;;;;11.95;1.85;;;12.60;97.20;;;;;;6277456;22;20007;-82
2022/11/02 09:45:06;;;;;;;12.75;2.10;;;12.60;97.00;;;;;;6249776;22;20047;-82
2022/11/02 09:47:43;;;;;;;11.73;1.63;;;12.60;97.00;;;;;;6249447;22;20058;-82
2022/11/02 09:50:14;;;;;;;10.13;1.50;;;12.60;96.80;;;;;;6249957;22;20325;-83
2022/11/02 09:52:44;;;;;;;8.85;1.80;;;12.70;96.80;;;;;;6250429;22;20016;-82
2022/11/02 09:55:17;;;;;;;12.43;1.67;;;12.70;96.60;;;;;;6249119;22;20020;-84
2022/11/02 09:57:47;;;;;;;14.18;2.00;;;12.70;96.30;;;;;;6276569;22;20023;-82
2022/11/02 10:00:14;;;;;;;10.32;1.80;;;12.70;96.40;;;;;;6249986;22;20448;-82
2022/11/02 10:02:51;;;;;;;11.32;1.77;;;12.70;96.40;;;;;;6249245;22;20015;-82
2022/11/02 10:05:22;;;;;;;14.27;1.70;;;12.70;96.10;;;;;;6250147;22;20034;-82
2022/11/02 10:08:16;;;;;;;13.20;1.90;;;12.70;96.20;;;;;;6248783;22;20519;-82
2022/11/02 10:11:00;;;;;;;;;;;12.80;95.90;;;;;;6250075;22;20026;-82
2022/11/02 10:13:31;;;;;;;16.23;2.33;;;12.80;95.80;;;;;;6277127;22;19919;-82
2022/11/02 10:16:04;;;;;;;11.27;1.85;;;12.80;95.90;;;;;;6248182;22;20019;-83
2022/11/02 10:18:30;;;;;;;12.60;2.22;;;12.90;95.70;;;;;;6277314;22;20023;-82
2022/11/02 10:21:05;;;;;;;16.50;2.50;;;12.90;95.50;;;;;;6249564;22;20019;-83
2022/11/02 10:23:38;;;;;;;17.80;2.33;;;12.90;95.30;;;;;;6248923;22;20039;-83
2022/11/02 10:26:04;;;;;;;9.07;1.70;;;13.00;95.00;;;;;;6249667;22;20086;-81
2022/11/02 10:28:37;;;;;;;13.75;2.05;;;13.00;94.80;;;;;;6273885;22;20047;-81
2022/11/02 10:31:12;;;;;;;13.30;2.10;;;13.10;94.70;;;;;;6247341;22;20016;-81
2022/11/02 10:33:37;;;;;;;14.07;2.15;;;13.10;94.80;;;;;;6249935;22;20439;-81
2022/11/02 10:36:34;;;;;;;14.50;2.25;;;13.10;94.60;;;;;;6248584;22;20047;-81
2022/11/02 10:39:23;;;;;;;14.02;2.50;;;13.10;94.30;;;;;;6250207;22;20100;-82
2022/11/02 10:42:07;;;;;;;13.07;2.47;;;13.20;94.20;;;;;;6249862;22;20019;-81
2022/11/02 10:44:36;;;;;;;12.65;1.95;;;13.20;93.90;;;;;;6248356;22;20016;-81
2022/11/02 10:47:16;;;;;;;11.45;2.97;;;13.20;94.10;;;;;;6249290;22;20008;-82
2022/11/02 10:49:51;;;;;;;15.30;2.05;;;13.20;94.00;;;;;;6276579;22;20016;-81
2022/11/02 10:52:17;;;;;;;13.95;1.73;;;13.20;94.00;;;;;;6276852;22;20016;-83
2022/11/02 10:54:43;;;;;;;12.80;2.50;;;13.30;93.80;;;;;;6249317;22;20015;-84
2022/11/02 10:57:12;;;;;;;12.82;2.05;;;13.30;93.90;;;;;;6275991;22;20007;-85
2022/11/02 10:59:38;;;;;;;15.80;2.70;;;13.40;93.90;;;;;;6276616;22;20011;-84
2022/11/02 11:02:14;;;;;;;14.50;2.00;;;13.40;93.70;;;;;;6276784;22;20454;-84
2022/11/02 11:04:41;;;;;;;11.02;1.63;;;13.50;93.10;;;;;;6248624;22;20118;-84
2022/11/02 11:07:15;;;;;;;10.25;1.95;;;13.50;92.90;;;;;;6248339;22;20020;-84
2022/11/02 11:09:46;;;;;;;12.85;1.80;;;13.50;92.60;;;;;;6275784;22;20098;-83
2022/11/02 11:12:37;;;;;;;11.68;1.80;;;13.50;92.50;;;;;;6248100;22;20107;-84
2022/11/02 11:15:05;;;;;;;12.85;2.35;;;13.50;92.30;;;;;;6249637;22;20352;-83
2022/11/02 11:17:36;;;;;;;12.95;2.65;;;13.50;92.40;;;;;;6277805;22;20020;-84
2022/11/02 11:20:05;;;;;;;11.38;2.20;;;13.50;92.10;;;;;;6249923;22;20038;-85
2022/11/02 11:22:35;;;;;;;13.10;2.78;;;13.50;92.00;;;;;;6276671;22;20092;-83
2022/11/02 11:25:24;;;;;;;24.73;6.00;;;13.50;92.00;;;;;;6248209;22;20019;-83
2022/11/02 11:27:50;;;;;;;13.52;3.22;;;13.50;92.00;;;;;;6248234;22;20440;-83
2022/11/02 11:30:33;;;;;;;10.85;1.80;;;13.50;92.10;;;;;;6249343;22;20016;-84
2022/11/02 11:33:01;;;;;;;12.00;1.92;;;13.50;91.80;;;;;;6274894;22;20099;-84
2022/11/02 11:35:48;;;;;;;11.40;1.77;;;13.50;91.70;;;;;;6249029;22;20051;-85
2022/11/02 11:38:17;;;;;;;9.18;1.70;;;13.60;91.40;;;;;;6252991;22;20091;-85
2022/11/02 11:40:45;;;;;;;12.48;2.15;;;13.60;91.60;;;;;;6258921;22;20095;-84
2022/11/02 11:43:14;;;;;;;7.90;1.80;;;13.60;91.80;;;;;;6267845;22;20011;-84
2022/11/02 11:45:59;;;;;;;8.13;1.60;;;13.60;91.50;;;;;;6248842;22;20023;-84
2022/11/02 11:48:37;;;;;;;8.38;1.50;;;13.60;91.40;;;;;;6276190;22;20504;-85
2022/11/02 11:51:07;;;;;;;12.60;2.08;;;13.60;91.40;;;;;;6248622;22;20020;-85
2022/11/02 11:53:34;;;;;;;11.25;1.85;;;13.60;91.20;;;;;;6247842;22;20031;-85
2022/11/02 11:55:59;;;;;;;9.07;1.83;;;13.60;91.20;;;;;;6248690;22;20030;-86
2022/11/02 11:58:29;;;;;;;10.82;1.50;;;13.60;91.40;;;;;;6249175;22;20452;-85
2022/11/02 12:01:27;;;;;;;8.77;1.25;;;13.60;91.40;;;;;;6247734;22;20022;-84
2022/11/02 12:03:54;;;;;;;7.75;1.35;;;13.60;91.00;;;;;;6243617;22;20034;-84
2022/11/02 12:06:28;;;;;;;8.07;1.58;;;13.60;91.20;;;;;;6248839;22;20023;-85
2022/11/02 12:09:24;;;;;;;9.95;1.67;;;13.60;91.10;;;;;;6247597;22;20069;-85
2022/11/02 12:12:17;;;;;;;10.88;2.10;;;13.60;90.90;;;;;;6248474;22;20326;-85
2022/11/02 12:15:30;;;;;;;10.10;1.60;;;13.50;90.80;;;;;;6248373;22;20012;-84
2022/11/02 12:18:29;;;;;;;9.98;1.40;;;13.50;91.20;;;;;;6248704;22;20030;-84
2022/11/02 12:21:33;;;;;;;9.93;1.73;;;13.50;91.40;;;;;;6231810;22;20019;-84
2022/11/02 12:24:31;;;;;;;9.60;1.40;;;13.50;91.40;;;;;;6250270;22;20051;-84
2022/11/02 12:27:26;;;;;;;11.25;1.58;;;13.60;92.00;;;;;;6249344;22;20020;-85
2022/11/02 12:30:05;;;;;;;8.93;1.63;;;13.60;91.70;;;;;;6276943;22;20030;-84
2022/11/02 12:32:40;;;;;;;11.52;1.80;;;13.70;91.60;;;;;;6251273;22;20352;-84
2022/11/02 12:35:30;;;;;;;13.98;1.75;;;13.70;91.80;;;;;;6249980;22;20027;-84
2022/11/02 12:38:02;;;;;;;14.18;1.70;;;13.80;91.50;;;;;;6250481;22;20073;-85
2022/11/02 12:40:41;;;;;;;10.20;1.80;;;13.80;91.60;;;;;;6277160;22;20016;-83
2022/11/02 12:43:24;;;;;;;13.38;2.08;;;13.90;91.30;;;;;;6248955;22;20016;-83
2022/11/02 12:46:05;;;;;;;10.05;1.80;;;13.90;90.90;;;;;;6250091;22;20019;-83
2022/11/02 12:49:05;;;;;;;11.27;1.92;;;14.00;91.40;;;;;;6250720;22;20012;-83
2022/11/02 12:51:53;;;;;;;11.90;1.88;;;14.10;91.40;;;;;;6249002;22;20344;-84
2022/11/02 12:54:30;;;;;;;12.00;1.88;;;14.10;91.10;;;;;;6277275;22;20023;-84
2022/11/02 12:56:56;;;;;;;12.95;1.92;;;14.20;90.70;;;;;;6276564;22;20015;-84
2022/11/02 12:59:27;;;;;;;12.43;1.95;;;14.20;90.80;;;;;;6277719;22;20022;-83
2022/11/02 13:02:00;;;;;;;13.95;1.65;;;14.20;90.60;;;;;;6249666;22;20015;-84
2022/11/02 13:04:44;;;;;;;14.25;1.92;;;14.30;90.40;;;;;;6249531;22;20028;-84
2022/11/02 13:07:13;;;;;;;12.65;2.10;;;14.30;90.40;;;;;;6277400;22;20012;-84
2022/11/02 13:09:48;;;;;;;14.77;1.73;;;14.30;90.80;;;;;;6277240;22;20087;-85
2022/11/02 13:12:18;;;;;;;12.55;1.60;;;14.40;90.70;;;;;;6276638;22;20058;-83
2022/11/02 13:14:54;;;;;;;12.07;1.80;;;14.40;90.50;;;;;;6249978;22;20015;-84
2022/11/02 13:17:42;;;;;;;15.68;2.00;;;14.40;90.20;;;;;;6249218;22;20343;-84
2022/11/02 13:20:28;;;;;;;11.25;2.00;;;14.40;90.10;;;;;;6249994;22;20525;-84
2022/11/02 13:23:05;;;;;;;12.00;1.85;;;14.40;90.30;;;;;;6249903;22;20019;-84
2022/11/02 13:25:35;;;;;;;12.60;2.47;;;14.40;90.10;;;;;;6249076;22;20020;-85